sensor_id;sensor_type;location;lat;lon;timestamp;temperature;humidity
65707;SHT31;52423;43.512;5.220;2022-07-11T00:02:03;23.68;66.79
65707;SHT31;52423;43.512;5.220;2022-07-11T00:04:30;23.71;66.98
65707;SHT31;52423;43.512;5.220;2022-07-11T00:06:57;23.70;67.50
65707;SHT31;52423;43.512;5.220;2022-07-11T00:09:22;23.61;68.23
65707;SHT31;52423;43.512;5.220;2022-07-11T00:11:48;23.55;68.20
65707;SHT31;52423;43.512;5.220;2022-07-11T00:14:15;23.51;68.56
65707;SHT31;52423;43.512;5.220;2022-07-11T00:16:41;23.44;68.99
65707;SHT31;52423;43.512;5.220;2022-07-11T00:19:07;23.42;69.01
65707;SHT31;52423;43.512;5.220;2022-07-11T00:21:33;23.36;69.24
65707;SHT31;52423;43.512;5.220;2022-07-11T00:24:04;23.34;69.37
65707;SHT31;52423;43.512;5.220;2022-07-11T00:26:30;23.37;69.23
65707;SHT31;52423;43.512;5.220;2022-07-11T00:28:56;23.26;69.72
65707;SHT31;52423;43.512;5.220;2022-07-11T00:31:22;23.24;69.29
65707;SHT31;52423;43.512;5.220;2022-07-11T00:33:49;23.26;69.17
65707;SHT31;52423;43.512;5.220;2022-07-11T00:36:15;23.24;69.27
65707;SHT31;52423;43.512;5.220;2022-07-11T00:38:41;23.19;69.04
65707;SHT31;52423;43.512;5.220;2022-07-11T00:41:06;23.16;69.19
65707;SHT31;52423;43.512;5.220;2022-07-11T00:43:37;23.13;69.13
65707;SHT31;52423;43.512;5.220;2022-07-11T00:46:07;23.13;69.05
65707;SHT31;52423;43.512;5.220;2022-07-11T00:48:33;23.09;69.01
65707;SHT31;52423;43.512;5.220;2022-07-11T00:51:01;23.05;69.09
65707;SHT31;52423;43.512;5.220;2022-07-11T00:53:28;23.07;69.09
65707;SHT31;52423;43.512;5.220;2022-07-11T00:55:54;23.05;69.27
65707;SHT31;52423;43.512;5.220;2022-07-11T00:58:21;23.05;69.11
65707;SHT31;52423;43.512;5.220;2022-07-11T01:00:48;22.99;69.52
65707;SHT31;52423;43.512;5.220;2022-07-11T01:03:13;23.06;69.92
65707;SHT31;52423;43.512;5.220;2022-07-11T01:05:39;23.05;70.14
65707;SHT31;52423;43.512;5.220;2022-07-11T01:08:05;22.99;70.75
65707;SHT31;52423;43.512;5.220;2022-07-11T01:10:34;23.03;70.55
65707;SHT31;52423;43.512;5.220;2022-07-11T01:13:00;23.05;71.06
65707;SHT31;52423;43.512;5.220;2022-07-11T01:15:27;22.99;71.27
65707;SHT31;52423;43.512;5.220;2022-07-11T01:17:53;23.05;71.45
65707;SHT31;52423;43.512;5.220;2022-07-11T01:20:20;22.96;72.23
65707;SHT31;52423;43.512;5.220;2022-07-11T01:22:52;23.00;72.68
65707;SHT31;52423;43.512;5.220;2022-07-11T01:25:19;23.00;73.05
65707;SHT31;52423;43.512;5.220;2022-07-11T01:28:05;22.99;73.29
65707;SHT31;52423;43.512;5.220;2022-07-11T01:30:32;22.96;73.60
65707;SHT31;52423;43.512;5.220;2022-07-11T01:32:59;22.91;74.09
65707;SHT31;52423;43.512;5.220;2022-07-11T01:35:26;22.93;74.28
65707;SHT31;52423;43.512;5.220;2022-07-11T01:37:51;22.93;74.21
65707;SHT31;52423;43.512;5.220;2022-07-11T01:40:17;22.92;74.47
65707;SHT31;52423;43.512;5.220;2022-07-11T01:42:43;22.88;74.71
65707;SHT31;52423;43.512;5.220;2022-07-11T01:45:10;22.85;74.24
65707;SHT31;52423;43.512;5.220;2022-07-11T01:47:37;22.83;74.36
65707;SHT31;52423;43.512;5.220;2022-07-11T01:50:03;22.82;73.90
65707;SHT31;52423;43.512;5.220;2022-07-11T01:52:29;22.72;74.14
65707;SHT31;52423;43.512;5.220;2022-07-11T01:54:55;22.75;73.30
65707;SHT31;52423;43.512;5.220;2022-07-11T01:57:20;22.71;72.91
65707;SHT31;52423;43.512;5.220;2022-07-11T01:59:46;22.71;72.79
65707;SHT31;52423;43.512;5.220;2022-07-11T02:02:13;22.66;72.82
65707;SHT31;52423;43.512;5.220;2022-07-11T02:04:40;22.65;72.76
65707;SHT31;52423;43.512;5.220;2022-07-11T02:07:06;22.61;72.53
65707;SHT31;52423;43.512;5.220;2022-07-11T02:09:32;22.62;72.42
65707;SHT31;52423;43.512;5.220;2022-07-11T02:11:58;22.58;72.45
65707;SHT31;52423;43.512;5.220;2022-07-11T02:14:23;22.55;72.14
65707;SHT31;52423;43.512;5.220;2022-07-11T02:16:49;22.56;72.10
65707;SHT31;52423;43.512;5.220;2022-07-11T02:19:15;22.58;71.62
65707;SHT31;52423;43.512;5.220;2022-07-11T02:21:41;22.54;71.52
65707;SHT31;52423;43.512;5.220;2022-07-11T02:26:42;22.48;71.74
65707;SHT31;52423;43.512;5.220;2022-07-11T02:29:08;22.44;71.79
65707;SHT31;52423;43.512;5.220;2022-07-11T02:31:34;22.48;71.94
65707;SHT31;52423;43.512;5.220;2022-07-11T02:33:59;22.38;71.76
65707;SHT31;52423;43.512;5.220;2022-07-11T02:36:25;22.37;71.76
65707;SHT31;52423;43.512;5.220;2022-07-11T02:38:51;22.34;71.91
65707;SHT31;52423;43.512;5.220;2022-07-11T02:41:16;22.33;71.88
65707;SHT31;52423;43.512;5.220;2022-07-11T02:43:43;22.31;71.71
65707;SHT31;52423;43.512;5.220;2022-07-11T02:46:09;22.28;71.83
65707;SHT31;52423;43.512;5.220;2022-07-11T02:48:35;22.33;71.69
65707;SHT31;52423;43.512;5.220;2022-07-11T02:51:00;22.38;71.47
65707;SHT31;52423;43.512;5.220;2022-07-11T02:53:26;22.38;71.40
65707;SHT31;52423;43.512;5.220;2022-07-11T02:55:52;22.35;71.19
65707;SHT31;52423;43.512;5.220;2022-07-11T02:58:18;22.40;70.91
65707;SHT31;52423;43.512;5.220;2022-07-11T03:00:43;22.40;71.12
65707;SHT31;52423;43.512;5.220;2022-07-11T03:03:09;22.33;71.11
65707;SHT31;52423;43.512;5.220;2022-07-11T03:05:35;22.37;71.06
65707;SHT31;52423;43.512;5.220;2022-07-11T03:08:00;22.33;71.05
65707;SHT31;52423;43.512;5.220;2022-07-11T03:10:26;22.21;71.35
65707;SHT31;52423;43.512;5.220;2022-07-11T03:12:52;22.25;71.35
65707;SHT31;52423;43.512;5.220;2022-07-11T03:15:18;22.20;71.40
65707;SHT31;52423;43.512;5.220;2022-07-11T03:17:43;22.17;70.68
65707;SHT31;52423;43.512;5.220;2022-07-11T03:20:10;22.22;70.95
65707;SHT31;52423;43.512;5.220;2022-07-11T03:22:36;22.27;70.34
65707;SHT31;52423;43.512;5.220;2022-07-11T03:25:03;22.17;70.40
65707;SHT31;52423;43.512;5.220;2022-07-11T03:27:31;22.24;69.86
65707;SHT31;52423;43.512;5.220;2022-07-11T03:29:57;22.21;69.72
65707;SHT31;52423;43.512;5.220;2022-07-11T03:32:23;22.22;69.11
65707;SHT31;52423;43.512;5.220;2022-07-11T03:34:48;22.24;68.88
65707;SHT31;52423;43.512;5.220;2022-07-11T03:37:34;22.17;69.05
65707;SHT31;52423;43.512;5.220;2022-07-11T03:39:59;22.20;68.87
65707;SHT31;52423;43.512;5.220;2022-07-11T03:42:26;22.20;68.47
65707;SHT31;52423;43.512;5.220;2022-07-11T03:44:52;22.18;68.10
65707;SHT31;52423;43.512;5.220;2022-07-11T03:47:18;22.22;68.12
65707;SHT31;52423;43.512;5.220;2022-07-11T03:49:44;22.21;67.96
65707;SHT31;52423;43.512;5.220;2022-07-11T03:52:09;22.17;67.99
65707;SHT31;52423;43.512;5.220;2022-07-11T03:54:35;22.14;68.04
65707;SHT31;52423;43.512;5.220;2022-07-11T03:57:00;22.05;67.79
65707;SHT31;52423;43.512;5.220;2022-07-11T03:59:26;22.05;67.89
65707;SHT31;52423;43.512;5.220;2022-07-11T04:01:52;22.03;67.89
65707;SHT31;52423;43.512;5.220;2022-07-11T04:04:17;21.92;68.04
65707;SHT31;52423;43.512;5.220;2022-07-11T04:06:43;21.83;67.82
65707;SHT31;52423;43.512;5.220;2022-07-11T04:09:09;21.77;67.75
65707;SHT31;52423;43.512;5.220;2022-07-11T04:11:36;21.76;67.62
65707;SHT31;52423;43.512;5.220;2022-07-11T04:14:04;21.69;67.82
65707;SHT31;52423;43.512;5.220;2022-07-11T04:16:50;21.64;67.55
65707;SHT31;52423;43.512;5.220;2022-07-11T04:19:36;21.63;67.90
65707;SHT31;52423;43.512;5.220;2022-07-11T04:22:21;21.57;67.85
65707;SHT31;52423;43.512;5.220;2022-07-11T04:25:08;21.56;67.86
65707;SHT31;52423;43.512;5.220;2022-07-11T04:27:53;21.59;67.85
65707;SHT31;52423;43.512;5.220;2022-07-11T04:30:39;21.59;67.93
65707;SHT31;52423;43.512;5.220;2022-07-11T04:33:24;21.57;68.04
65707;SHT31;52423;43.512;5.220;2022-07-11T04:36:10;21.67;67.89
65707;SHT31;52423;43.512;5.220;2022-07-11T04:38:54;21.72;67.65
65707;SHT31;52423;43.512;5.220;2022-07-11T04:41:25;21.77;67.43
65707;SHT31;52423;43.512;5.220;2022-07-11T04:43:51;21.80;67.20
65707;SHT31;52423;43.512;5.220;2022-07-11T04:46:17;21.82;66.96
65707;SHT31;52423;43.512;5.220;2022-07-11T04:48:43;21.79;67.10
65707;SHT31;52423;43.512;5.220;2022-07-11T04:51:08;21.82;66.93
65707;SHT31;52423;43.512;5.220;2022-07-11T04:53:34;21.87;66.79
65707;SHT31;52423;43.512;5.220;2022-07-11T04:56:00;21.86;66.58
65707;SHT31;52423;43.512;5.220;2022-07-11T04:58:26;21.90;66.41
65707;SHT31;52423;43.512;5.220;2022-07-11T05:00:52;21.94;66.13
65707;SHT31;52423;43.512;5.220;2022-07-11T05:03:18;22.04;65.82
65707;SHT31;52423;43.512;5.220;2022-07-11T05:05:45;22.11;65.24
65707;SHT31;52423;43.512;5.220;2022-07-11T05:08:11;22.18;64.87
65707;SHT31;52423;43.512;5.220;2022-07-11T05:10:37;22.21;64.67
65707;SHT31;52423;43.512;5.220;2022-07-11T05:13:03;22.27;64.25
65707;SHT31;52423;43.512;5.220;2022-07-11T05:15:29;22.33;64.07
65707;SHT31;52423;43.512;5.220;2022-07-11T05:17:54;22.40;63.54
65707;SHT31;52423;43.512;5.220;2022-07-11T05:20:20;22.51;63.19
65707;SHT31;52423;43.512;5.220;2022-07-11T05:22:45;22.55;62.79
65707;SHT31;52423;43.512;5.220;2022-07-11T05:25:12;22.66;62.60
65707;SHT31;52423;43.512;5.220;2022-07-11T05:27:37;22.76;62.44
65707;SHT31;52423;43.512;5.220;2022-07-11T05:30:03;22.83;62.26
65707;SHT31;52423;43.512;5.220;2022-07-11T05:32:29;22.92;62.20
65707;SHT31;52423;43.512;5.220;2022-07-11T05:34:56;22.95;62.19
65707;SHT31;52423;43.512;5.220;2022-07-11T05:37:26;22.99;62.06
65707;SHT31;52423;43.512;5.220;2022-07-11T05:39:52;23.13;62.22
65707;SHT31;52423;43.512;5.220;2022-07-11T05:42:18;23.13;62.29
65707;SHT31;52423;43.512;5.220;2022-07-11T05:44:43;23.22;61.57
65707;SHT31;52423;43.512;5.220;2022-07-11T05:47:09;23.26;61.90
65707;SHT31;52423;43.512;5.220;2022-07-11T05:49:35;23.36;61.68
65707;SHT31;52423;43.512;5.220;2022-07-11T05:52:01;23.40;62.15
65707;SHT31;52423;43.512;5.220;2022-07-11T05:54:27;23.50;62.18
65707;SHT31;52423;43.512;5.220;2022-07-11T05:56:53;23.54;61.89
65707;SHT31;52423;43.512;5.220;2022-07-11T05:59:21;23.64;61.85
65707;SHT31;52423;43.512;5.220;2022-07-11T06:01:47;23.71;61.34
65707;SHT31;52423;43.512;5.220;2022-07-11T06:04:13;23.84;61.20
65707;SHT31;52423;43.512;5.220;2022-07-11T06:06:39;23.88;60.57
65707;SHT31;52423;43.512;5.220;2022-07-11T06:09:05;23.86;60.20
65707;SHT31;52423;43.512;5.220;2022-07-11T06:11:30;24.04;60.08
65707;SHT31;52423;43.512;5.220;2022-07-11T06:13:57;24.08;59.86
65707;SHT31;52423;43.512;5.220;2022-07-11T06:16:23;24.15;59.82
65707;SHT31;52423;43.512;5.220;2022-07-11T06:18:49;24.18;59.59
65707;SHT31;52423;43.512;5.220;2022-07-11T06:21:16;24.28;59.53
65707;SHT31;52423;43.512;5.220;2022-07-11T06:23:42;24.39;59.31
65707;SHT31;52423;43.512;5.220;2022-07-11T06:26:08;24.45;59.38
65707;SHT31;52423;43.512;5.220;2022-07-11T06:28:37;24.52;59.35
65707;SHT31;52423;43.512;5.220;2022-07-11T06:31:04;24.63;59.10
65707;SHT31;52423;43.512;5.220;2022-07-11T06:33:30;24.83;58.52
65707;SHT31;52423;43.512;5.220;2022-07-11T06:35:56;24.93;58.50
65707;SHT31;52423;43.512;5.220;2022-07-11T06:38:22;25.11;57.42
65707;SHT31;52423;43.512;5.220;2022-07-11T06:40:48;25.23;56.78
65707;SHT31;52423;43.512;5.220;2022-07-11T06:43:13;25.32;56.76
65707;SHT31;52423;43.512;5.220;2022-07-11T06:45:39;25.39;56.00
65707;SHT31;52423;43.512;5.220;2022-07-11T06:48:06;25.45;55.73
65707;SHT31;52423;43.512;5.220;2022-07-11T06:50:32;25.46;55.60
65707;SHT31;52423;43.512;5.220;2022-07-11T06:52:58;25.48;55.96
65707;SHT31;52423;43.512;5.220;2022-07-11T06:55:24;25.57;53.37
65707;SHT31;52423;43.512;5.220;2022-07-11T06:57:50;25.51;52.35
65707;SHT31;52423;43.512;5.220;2022-07-11T07:00:16;25.62;53.18
65707;SHT31;52423;43.512;5.220;2022-07-11T07:02:43;25.71;51.88
65707;SHT31;52423;43.512;5.220;2022-07-11T07:05:09;25.93;51.98
65707;SHT31;52423;43.512;5.220;2022-07-11T07:07:35;25.90;52.42
65707;SHT31;52423;43.512;5.220;2022-07-11T07:10:01;25.97;51.68
65707;SHT31;52423;43.512;5.220;2022-07-11T07:12:28;26.04;51.20
65707;SHT31;52423;43.512;5.220;2022-07-11T07:14:53;26.13;50.90
65707;SHT31;52423;43.512;5.220;2022-07-11T07:17:19;26.17;50.66
65707;SHT31;52423;43.512;5.220;2022-07-11T07:19:45;26.33;50.55
65707;SHT31;52423;43.512;5.220;2022-07-11T07:22:11;26.30;49.66
65707;SHT31;52423;43.512;5.220;2022-07-11T07:24:42;26.41;49.05
65707;SHT31;52423;43.512;5.220;2022-07-11T07:27:09;26.45;48.69
65707;SHT31;52423;43.512;5.220;2022-07-11T07:29:35;26.44;48.46
65707;SHT31;52423;43.512;5.220;2022-07-11T07:32:00;26.41;48.57
65707;SHT31;52423;43.512;5.220;2022-07-11T07:34:26;26.47;47.69
65707;SHT31;52423;43.512;5.220;2022-07-11T07:36:52;26.54;48.01
65707;SHT31;52423;43.512;5.220;2022-07-11T07:39:18;26.67;48.03
65707;SHT31;52423;43.512;5.220;2022-07-11T07:41:44;26.75;47.97
65707;SHT31;52423;43.512;5.220;2022-07-11T07:44:10;26.85;47.97
65707;SHT31;52423;43.512;5.220;2022-07-11T07:46:36;26.98;47.80
65707;SHT31;52423;43.512;5.220;2022-07-11T07:49:02;27.15;47.30
65707;SHT31;52423;43.512;5.220;2022-07-11T07:51:29;27.28;46.85
65707;SHT31;52423;43.512;5.220;2022-07-11T07:53:55;27.32;46.60
65707;SHT31;52423;43.512;5.220;2022-07-11T07:56:21;27.21;46.23
65707;SHT31;52423;43.512;5.220;2022-07-11T07:58:47;27.42;45.98
65707;SHT31;52423;43.512;5.220;2022-07-11T08:01:13;27.45;46.02
65707;SHT31;52423;43.512;5.220;2022-07-11T08:03:57;27.47;46.08
65707;SHT31;52423;43.512;5.220;2022-07-11T08:06:22;27.53;45.33
65707;SHT31;52423;43.512;5.220;2022-07-11T08:08:48;27.56;45.18
65707;SHT31;52423;43.512;5.220;2022-07-11T08:11:15;27.63;45.43
65707;SHT31;52423;43.512;5.220;2022-07-11T08:13:42;28.03;45.17
65707;SHT31;52423;43.512;5.220;2022-07-11T08:16:08;28.00;45.56
65707;SHT31;52423;43.512;5.220;2022-07-11T08:18:34;27.82;44.98
65707;SHT31;52423;43.512;5.220;2022-07-11T08:21:00;27.84;45.42
65707;SHT31;52423;43.512;5.220;2022-07-11T08:23:26;27.98;44.93
65707;SHT31;52423;43.512;5.220;2022-07-11T08:25:51;27.98;44.52
65707;SHT31;52423;43.512;5.220;2022-07-11T08:28:18;27.96;44.92
65707;SHT31;52423;43.512;5.220;2022-07-11T08:30:44;28.05;43.72
65707;SHT31;52423;43.512;5.220;2022-07-11T08:33:11;28.18;44.07
65707;SHT31;52423;43.512;5.220;2022-07-11T08:35:37;28.29;42.48
65707;SHT31;52423;43.512;5.220;2022-07-11T08:38:03;28.40;42.72
65707;SHT31;52423;43.512;5.220;2022-07-11T08:40:29;28.34;43.02
65707;SHT31;52423;43.512;5.220;2022-07-11T08:42:56;28.35;42.74
65707;SHT31;52423;43.512;5.220;2022-07-11T08:45:30;28.61;40.76
65707;SHT31;52423;43.512;5.220;2022-07-11T08:47:57;28.55;40.18
65707;SHT31;52423;43.512;5.220;2022-07-11T08:50:27;28.73;40.02
65707;SHT31;52423;43.512;5.220;2022-07-11T08:52:57;28.76;40.48
65707;SHT31;52423;43.512;5.220;2022-07-11T08:55:24;28.95;41.13
65707;SHT31;52423;43.512;5.220;2022-07-11T08:57:51;28.93;40.48
65707;SHT31;52423;43.512;5.220;2022-07-11T09:00:17;28.98;40.44
65707;SHT31;52423;43.512;5.220;2022-07-11T09:02:43;28.95;40.87
65707;SHT31;52423;43.512;5.220;2022-07-11T09:05:10;28.95;42.36
65707;SHT31;52423;43.512;5.220;2022-07-11T09:07:44;29.00;42.23
65707;SHT31;52423;43.512;5.220;2022-07-11T09:10:10;29.16;41.86
65707;SHT31;52423;43.512;5.220;2022-07-11T09:12:36;29.16;42.01
65707;SHT31;52423;43.512;5.220;2022-07-11T09:15:02;29.27;41.09
65707;SHT31;52423;43.512;5.220;2022-07-11T09:17:29;29.26;41.32
65707;SHT31;52423;43.512;5.220;2022-07-11T09:19:58;29.33;40.83
65707;SHT31;52423;43.512;5.220;2022-07-11T09:22:24;29.41;40.03
65707;SHT31;52423;43.512;5.220;2022-07-11T09:25:12;29.44;39.81
65707;SHT31;52423;43.512;5.220;2022-07-11T09:28:02;29.67;40.42
65707;SHT31;52423;43.512;5.220;2022-07-11T09:30:35;29.55;39.63
65707;SHT31;52423;43.512;5.220;2022-07-11T09:33:11;29.74;40.10
65707;SHT31;52423;43.512;5.220;2022-07-11T09:35:39;29.94;39.99
65707;SHT31;52423;43.512;5.220;2022-07-11T09:38:08;29.55;40.30
65707;SHT31;52423;43.512;5.220;2022-07-11T09:40:35;29.95;39.59
65707;SHT31;52423;43.512;5.220;2022-07-11T09:43:01;29.67;39.25
65707;SHT31;52423;43.512;5.220;2022-07-11T09:45:30;29.82;40.89
65707;SHT31;52423;43.512;5.220;2022-07-11T09:47:59;29.88;41.66
65707;SHT31;52423;43.512;5.220;2022-07-11T09:50:27;29.82;43.46
65707;SHT31;52423;43.512;5.220;2022-07-11T09:53:09;29.97;44.68
65707;SHT31;52423;43.512;5.220;2022-07-11T09:55:39;29.57;45.77
65707;SHT31;52423;43.512;5.220;2022-07-11T09:58:09;29.71;46.89
65707;SHT31;52423;43.512;5.220;2022-07-11T10:00:37;29.88;47.00
65707;SHT31;52423;43.512;5.220;2022-07-11T10:03:05;29.94;46.86
65707;SHT31;52423;43.512;5.220;2022-07-11T10:05:31;30.18;47.29
65707;SHT31;52423;43.512;5.220;2022-07-11T10:07:57;29.80;48.04
65707;SHT31;52423;43.512;5.220;2022-07-11T10:10:24;29.81;48.96
65707;SHT31;52423;43.512;5.220;2022-07-11T10:12:51;29.67;49.39
65707;SHT31;52423;43.512;5.220;2022-07-11T10:15:22;29.78;50.20
65707;SHT31;52423;43.512;5.220;2022-07-11T10:28:23;29.74;50.68
65707;SHT31;52423;43.512;5.220;2022-07-11T10:30:53;29.91;50.66
65707;SHT31;52423;43.512;5.220;2022-07-11T10:33:21;29.91;50.64
65707;SHT31;52423;43.512;5.220;2022-07-11T10:35:49;30.11;50.66
65707;SHT31;52423;43.512;5.220;2022-07-11T10:38:19;30.33;49.86
65707;SHT31;52423;43.512;5.220;2022-07-11T10:40:56;30.05;50.95
65707;SHT31;52423;43.512;5.220;2022-07-11T10:46:07;30.25;50.80
65707;SHT31;52423;43.512;5.220;2022-07-11T10:48:36;29.97;51.76
65707;SHT31;52423;43.512;5.220;2022-07-11T10:51:24;30.02;51.98
65707;SHT31;52423;43.512;5.220;2022-07-11T10:53:51;30.21;52.39
65707;SHT31;52423;43.512;5.220;2022-07-11T10:59:17;30.01;52.84
65707;SHT31;52423;43.512;5.220;2022-07-11T11:02:03;30.09;53.48
65707;SHT31;52423;43.512;5.220;2022-07-11T11:04:54;30.11;53.75
65707;SHT31;52423;43.512;5.220;2022-07-11T11:07:42;30.29;53.47
65707;SHT31;52423;43.512;5.220;2022-07-11T11:15:45;30.09;53.79
65707;SHT31;52423;43.512;5.220;2022-07-11T11:18:41;30.15;54.90
65707;SHT31;52423;43.512;5.220;2022-07-11T11:23:35;30.76;53.34
65707;SHT31;52423;43.512;5.220;2022-07-11T11:26:08;30.46;53.14
65707;SHT31;52423;43.512;5.220;2022-07-11T11:28:35;30.37;53.93
65707;SHT31;52423;43.512;5.220;2022-07-11T11:31:04;30.53;53.72
65707;SHT31;52423;43.512;5.220;2022-07-11T11:33:33;30.33;54.36
65707;SHT31;52423;43.512;5.220;2022-07-11T11:38:28;30.52;54.44
65707;SHT31;52423;43.512;5.220;2022-07-11T11:40:55;30.31;54.59
65707;SHT31;52423;43.512;5.220;2022-07-11T11:43:21;30.22;54.46
65707;SHT31;52423;43.512;5.220;2022-07-11T11:45:51;30.23;54.67
65707;SHT31;52423;43.512;5.220;2022-07-11T11:53:39;30.44;54.77
65707;SHT31;52423;43.512;5.220;2022-07-11T11:58:48;30.64;54.47
65707;SHT31;52423;43.512;5.220;2022-07-11T12:01:19;30.79;54.39
65707;SHT31;52423;43.512;5.220;2022-07-11T12:04:07;30.56;55.28
65707;SHT31;52423;43.512;5.220;2022-07-11T12:07:05;30.70;55.20
65707;SHT31;52423;43.512;5.220;2022-07-11T12:09:24;30.91;54.66
65707;SHT31;52423;43.512;5.220;2022-07-11T12:12:08;30.69;55.56
65707;SHT31;52423;43.512;5.220;2022-07-11T12:14:53;30.60;56.81
65707;SHT31;52423;43.512;5.220;2022-07-11T12:17:23;30.28;56.80
65707;SHT31;52423;43.512;5.220;2022-07-11T12:19:50;30.32;57.16
65707;SHT31;52423;43.512;5.220;2022-07-11T12:22:16;30.74;55.52
65707;SHT31;52423;43.512;5.220;2022-07-11T12:24:46;30.63;55.37
65707;SHT31;52423;43.512;5.220;2022-07-11T12:27:17;30.59;56.29
65707;SHT31;52423;43.512;5.220;2022-07-11T12:29:43;30.29;56.36
65707;SHT31;52423;43.512;5.220;2022-07-11T12:32:13;30.46;55.66
65707;SHT31;52423;43.512;5.220;2022-07-11T12:37:12;30.21;56.00
65707;SHT31;52423;43.512;5.220;2022-07-11T12:39:46;29.94;56.76
65707;SHT31;52423;43.512;5.220;2022-07-11T12:44:53;29.92;57.90
65707;SHT31;52423;43.512;5.220;2022-07-11T12:47:24;29.91;58.11
65707;SHT31;52423;43.512;5.220;2022-07-11T12:49:51;30.19;57.10
65707;SHT31;52423;43.512;5.220;2022-07-11T12:52:17;29.97;58.18
65707;SHT31;52423;43.512;5.220;2022-07-11T12:54:43;30.22;57.39
65707;SHT31;52423;43.512;5.220;2022-07-11T12:57:10;29.97;57.80
65707;SHT31;52423;43.512;5.220;2022-07-11T12:59:40;30.02;57.70
65707;SHT31;52423;43.512;5.220;2022-07-11T13:02:10;29.75;58.23
65707;SHT31;52423;43.512;5.220;2022-07-11T13:04:39;29.81;58.45
65707;SHT31;52423;43.512;5.220;2022-07-11T13:10:17;29.41;59.34
65707;SHT31;52423;43.512;5.220;2022-07-11T13:12:44;29.58;59.67
65707;SHT31;52423;43.512;5.220;2022-07-11T13:15:13;29.86;58.36
65707;SHT31;52423;43.512;5.220;2022-07-11T13:17:49;29.54;58.79
65707;SHT31;52423;43.512;5.220;2022-07-11T13:20:20;29.65;59.11
65707;SHT31;52423;43.512;5.220;2022-07-11T13:22:47;29.68;59.78
65707;SHT31;52423;43.512;5.220;2022-07-11T13:25:14;29.75;58.50
65707;SHT31;52423;43.512;5.220;2022-07-11T13:27:41;29.54;59.12
65707;SHT31;52423;43.512;5.220;2022-07-11T13:30:11;29.38;59.23
65707;SHT31;52423;43.512;5.220;2022-07-11T13:32:41;29.57;59.09
65707;SHT31;52423;43.512;5.220;2022-07-11T13:35:07;29.49;59.25
65707;SHT31;52423;43.512;5.220;2022-07-11T13:37:34;29.27;59.91
65707;SHT31;52423;43.512;5.220;2022-07-11T13:40:03;29.29;59.70
65707;SHT31;52423;43.512;5.220;2022-07-11T13:42:29;29.30;59.90
65707;SHT31;52423;43.512;5.220;2022-07-11T13:44:57;29.41;59.56
65707;SHT31;52423;43.512;5.220;2022-07-11T13:47:22;29.49;59.53
65707;SHT31;52423;43.512;5.220;2022-07-11T13:49:48;29.27;60.32
65707;SHT31;52423;43.512;5.220;2022-07-11T13:52:13;29.37;59.88
65707;SHT31;52423;43.512;5.220;2022-07-11T13:54:39;29.16;60.29
65707;SHT31;52423;43.512;5.220;2022-07-11T13:57:05;29.37;60.24
65707;SHT31;52423;43.512;5.220;2022-07-11T13:59:31;28.98;60.29
65707;SHT31;52423;43.512;5.220;2022-07-11T14:01:56;28.72;61.22
65707;SHT31;52423;43.512;5.220;2022-07-11T14:04:22;28.66;61.60
65707;SHT31;52423;43.512;5.220;2022-07-11T14:06:48;28.79;61.38
65707;SHT31;52423;43.512;5.220;2022-07-11T14:09:13;29.19;60.28
65707;SHT31;52423;43.512;5.220;2022-07-11T14:11:39;28.96;60.42
65707;SHT31;52423;43.512;5.220;2022-07-11T14:14:05;29.07;60.04
65707;SHT31;52423;43.512;5.220;2022-07-11T14:16:31;29.12;60.19
65707;SHT31;52423;43.512;5.220;2022-07-11T14:18:57;29.02;60.54
65707;SHT31;52423;43.512;5.220;2022-07-11T14:21:26;28.79;61.14
65707;SHT31;52423;43.512;5.220;2022-07-11T14:23:53;28.85;60.56
65707;SHT31;52423;43.512;5.220;2022-07-11T14:26:19;28.85;61.31
65707;SHT31;52423;43.512;5.220;2022-07-11T14:28:44;28.91;60.99
65707;SHT31;52423;43.512;5.220;2022-07-11T14:31:10;29.10;60.62
65707;SHT31;52423;43.512;5.220;2022-07-11T14:33:36;28.92;61.01
65707;SHT31;52423;43.512;5.220;2022-07-11T14:36:02;29.00;60.54
65707;SHT31;52423;43.512;5.220;2022-07-11T14:38:28;28.71;61.96
65707;SHT31;52423;43.512;5.220;2022-07-11T14:40:54;28.89;61.60
65707;SHT31;52423;43.512;5.220;2022-07-11T14:43:20;28.99;61.47
65707;SHT31;52423;43.512;5.220;2022-07-11T14:45:45;28.61;61.69
65707;SHT31;52423;43.512;5.220;2022-07-11T14:48:11;28.86;61.69
65707;SHT31;52423;43.512;5.220;2022-07-11T14:50:37;28.75;61.44
65707;SHT31;52423;43.512;5.220;2022-07-11T14:53:02;28.86;61.38
65707;SHT31;52423;43.512;5.220;2022-07-11T14:55:28;28.76;61.25
65707;SHT31;52423;43.512;5.220;2022-07-11T14:57:54;28.79;60.96
65707;SHT31;52423;43.512;5.220;2022-07-11T15:00:21;28.69;62.04
65707;SHT31;52423;43.512;5.220;2022-07-11T15:02:47;28.85;61.36
65707;SHT31;52423;43.512;5.220;2022-07-11T15:05:31;28.96;61.32
65707;SHT31;52423;43.512;5.220;2022-07-11T15:07:57;29.04;60.81
65707;SHT31;52423;43.512;5.220;2022-07-11T15:10:41;28.72;61.76
65707;SHT31;52423;43.512;5.220;2022-07-11T15:13:25;28.59;62.14
65707;SHT31;52423;43.512;5.220;2022-07-11T15:15:51;28.44;62.24
65707;SHT31;52423;43.512;5.220;2022-07-11T15:18:17;28.35;62.50
65707;SHT31;52423;43.512;5.220;2022-07-11T15:20:42;28.24;63.53
65707;SHT31;52423;43.512;5.220;2022-07-11T15:23:08;28.21;63.75
65707;SHT31;52423;43.512;5.220;2022-07-11T15:25:34;28.22;63.45
65707;SHT31;52423;43.512;5.220;2022-07-11T15:28:00;28.08;63.60
65707;SHT31;52423;43.512;5.220;2022-07-11T15:30:26;27.82;64.68
65707;SHT31;52423;43.512;5.220;2022-07-11T15:32:51;27.79;64.92
65707;SHT31;52423;43.512;5.220;2022-07-11T15:35:17;27.76;65.05
65707;SHT31;52423;43.512;5.220;2022-07-11T15:37:43;27.91;64.80
65707;SHT31;52423;43.512;5.220;2022-07-11T15:40:09;27.94;64.79
65707;SHT31;52423;43.512;5.220;2022-07-11T15:42:35;27.80;64.75
65707;SHT31;52423;43.512;5.220;2022-07-11T15:45:00;27.62;65.21
65707;SHT31;52423;43.512;5.220;2022-07-11T15:47:28;27.74;65.68
65707;SHT31;52423;43.512;5.220;2022-07-11T15:49:53;27.90;65.41
65707;SHT31;52423;43.512;5.220;2022-07-11T15:52:19;28.01;64.58
65707;SHT31;52423;43.512;5.220;2022-07-11T15:54:44;27.87;64.88
65707;SHT31;52423;43.512;5.220;2022-07-11T15:57:10;27.45;65.97
65707;SHT31;52423;43.512;5.220;2022-07-11T15:59:36;27.33;66.36
65707;SHT31;52423;43.512;5.220;2022-07-11T16:02:02;27.26;67.44
65707;SHT31;52423;43.512;5.220;2022-07-11T16:04:28;27.19;66.93
65707;SHT31;52423;43.512;5.220;2022-07-11T16:06:53;27.08;67.17
65707;SHT31;52423;43.512;5.220;2022-07-11T16:09:19;27.15;67.99
65707;SHT31;52423;43.512;5.220;2022-07-11T16:11:46;27.21;67.11
65707;SHT31;52423;43.512;5.220;2022-07-11T16:14:11;27.21;67.06
65707;SHT31;52423;43.512;5.220;2022-07-11T16:16:38;27.18;67.57
65707;SHT31;52423;43.512;5.220;2022-07-11T16:19:05;27.32;67.28
65707;SHT31;52423;43.512;5.220;2022-07-11T16:21:32;27.35;66.50